Arnoldsburg, WV

2:04 AM EDT on July 05, 2015 (GMT -0400)
Park Avenue | | Change Station
CLOSE
Current Station
Personal Weather Station
Location: Spencer, WV
Elevation: 820 ft
Nearby Weather Stations

Elev 820 ft 38.79 °N, 81.36 °W | Updated 7 seconds ago

Partly Cloudy
Partly Cloudy
65.2 °F
Feels Like 65.2 °F
N
0.0
Wind Variable Wind from WSW
Gusts 0.0 mph

Today
High -- | Low -- °F
--% Chance of Precip.
Yesterday
High -- | Low -- °F
Precip. -- in
6:05 AM 8:53 PM
Waning Gibbous, 87% visible
Pressure 30.08 in
Visibility 5.0 miles
Clouds Clear
Dew Point 62 °F
Humidity 88%
Rainfall 0.00 in
Snow Depth Not available.
UV 0 out of 12
Pollen .50 out of 12
Air Quality Not available.
Flu Activity Not available.
METAR KPKB 050553Z AUTO 00000KT 5SM BR CLR 16/15 A3010 RMK AO2 SLP185 T01610150 10244 20161 50007

More Conditions Fewer Conditions

Pressure 30.08 in
Visibility 5.0 miles
Clouds Clear
Dew Point 62 °F
Humidity 88%
Rainfall 0.00 in
Snow Depth Not available.
UV 0 out of 12
Pollen .50 out of 12
Air Quality Not available.
Flu Activity Not available.
METAR KPKB 050553Z AUTO 00000KT 5SM BR CLR 16/15 A3010 RMK AO2 SLP185 T01610150 10244 20161 50007

More Conditions Fewer Conditions

10-Day Weather Forecast

×

Almanac

Astronomy

Jul. 05, 2015 Rise Set
Actual Time
Civil Twilight
Nautical Twilight
Astronomical Twilight
Moon
Length of Visible Light
Length of Day
Tomorrow will be .
, % of the Moon is Illuminated

Today's Extremes

State Highs State Lows

Community

WunderPhotos

Upload Photos

1,835,204 photos uploaded!

WunderBlogs® & News

Nearby

Air Quality

  Air Quality AQ Index Pollutant
Not available.

Snow Depth

Station Depth Elevation

Earthquake Activity

City Distance Mag. Time & Date
Minimum magnitude displayed is 2.5.

Coastal Water Temperatures

Place Temperature

Stations

Nearby Weather Stations

Station Location Temp. Windchill Dew Point Humidity Wind Precip. Elev Updated Type